Time;durP1;ratioP1;P1;durP2;ratioP2;P2;SDS_P1;SDS_P2;PMS_P1;PMS_P2;Temp;Humidity;BMP_temperature;BMP_pressure;BME280_temperature;BME280_humidity;BME280_pressure;Samples;Min_cycle;Max_cycle;Signal;HPM_P1;HPM_P2
2023/03/29 00:00:20;;;;;;;11.23;4.63;;;1.50;99.90;;;;;;5057935;28;20260;-64
2023/03/29 00:03:09;;;;;;;12.27;4.33;;;1.40;99.90;;;;;;5037644;28;20440;-63
2023/03/29 00:06:01;;;;;;;10.37;4.50;;;1.40;99.90;;;;;;5056355;28;20223;-63
2023/03/29 00:08:53;;;;;;;10.40;5.00;;;1.50;99.90;;;;;;5051073;28;20224;-63
2023/03/29 00:11:41;;;;;;;12.83;5.60;;;1.50;99.90;;;;;;5056688;28;20299;-64
2023/03/29 00:14:32;;;;;;;8.53;4.50;;;1.50;99.90;;;;;;5058062;28;20659;-64
2023/03/29 00:17:21;;;;;;;10.70;4.80;;;1.50;99.90;;;;;;5059019;28;20255;-63
2023/03/29 00:20:11;;;;;;;13.97;4.97;;;1.40;99.90;;;;;;5043246;28;20237;-61
2023/03/29 00:23:04;;;;;;;9.50;4.70;;;1.30;99.90;;;;;;5042676;28;20239;-63
2023/03/29 00:25:56;;;;;;;11.27;5.10;;;1.40;99.90;;;;;;5065639;28;20220;-64
2023/03/29 00:28:45;;;;;;;11.27;4.77;;;1.40;99.90;;;;;;5036367;28;20229;-64
2023/03/29 00:31:35;;;;;;;12.97;5.17;;;1.40;99.90;;;;;;5035158;28;20773;-67
2023/03/29 00:34:29;;;;;;;11.23;4.90;;;1.40;99.90;;;;;;5044067;28;20221;-63
2023/03/29 00:37:19;;;;;;;9.57;4.70;;;1.40;99.90;;;;;;5061306;28;20807;-63
2023/03/29 00:40:11;;;;;;;12.20;4.97;;;1.40;99.90;;;;;;5049246;28;20569;-63
2023/03/29 00:43:00;;;;;;;12.13;5.27;;;1.40;99.90;;;;;;5046418;28;20473;-65
2023/03/29 00:45:49;;;;;;;11.83;5.57;;;1.40;99.90;;;;;;5046023;28;20224;-64
2023/03/29 00:48:39;;;;;;;12.63;5.37;;;1.20;99.90;;;;;;5061639;28;20232;-64
2023/03/29 00:51:33;;;;;;;9.50;5.13;;;1.40;99.90;;;;;;5054420;28;20300;-64
2023/03/29 00:54:21;;;;;;;10.20;5.10;;;1.20;99.90;;;;;;5041903;28;20228;-65
2023/03/29 00:57:13;;;;;;;11.23;5.53;;;1.30;99.90;;;;;;5048443;28;20224;-64
2023/03/29 01:00:08;;;;;;;13.67;5.53;;;1.10;99.90;;;;;;5041374;28;20301;-64
2023/03/29 01:02:59;;;;;;;11.53;5.43;;;1.20;99.90;;;;;;5064493;28;20228;-65
2023/03/29 01:05:53;;;;;;;12.27;5.53;;;1.20;99.90;;;;;;5044200;28;20216;-63
2023/03/29 01:08:47;;;;;;;12.27;5.33;;;1.10;99.90;;;;;;5036889;28;20226;-64
2023/03/29 01:11:39;;;;;;;10.17;4.90;;;1.10;99.90;;;;;;5048854;28;20225;-64
2023/03/29 01:14:34;;;;;;;11.57;5.53;;;0.90;99.90;;;;;;5038855;28;20241;-65
2023/03/29 01:17:24;;;;;;;12.07;5.83;;;1.00;99.90;;;;;;5035944;28;20336;-63
2023/03/29 01:20:19;;;;;;;12.40;5.03;;;1.10;99.90;;;;;;5040152;28;20319;-65
2023/03/29 01:23:26;;;;;;;12.63;5.73;;;1.20;99.90;;;;;;5050595;28;20286;-64
2023/03/29 01:26:20;;;;;;;12.27;5.50;;;1.20;99.90;;;;;;5036227;28;20221;-66
2023/03/29 01:29:15;;;;;;;11.87;5.57;;;1.10;99.90;;;;;;5042241;28;20225;-64
2023/03/29 01:32:08;;;;;;;9.40;5.23;;;1.20;99.90;;;;;;5032668;28;20308;-63
2023/03/29 01:35:01;;;;;;;11.77;5.40;;;1.10;99.90;;;;;;5019913;28;20297;-63
2023/03/29 01:37:55;;;;;;;11.10;5.57;;;1.20;99.90;;;;;;5021138;28;20293;-64
2023/03/29 01:40:44;;;;;;;16.80;5.80;;;1.10;99.90;;;;;;5044629;28;20770;-62
2023/03/29 01:43:38;;;;;;;15.17;5.97;;;1.10;99.90;;;;;;5058351;28;20360;-65
2023/03/29 01:46:33;;;;;;;9.43;5.10;;;1.00;99.90;;;;;;5051078;28;20579;-62
2023/03/29 01:49:28;;;;;;;12.30;5.40;;;0.80;99.90;;;;;;5068047;28;20670;-63
2023/03/29 01:52:24;;;;;;;12.23;5.63;;;0.80;99.90;;;;;;5033748;28;20224;-63
2023/03/29 01:55:17;;;;;;;11.40;5.23;;;0.80;99.90;;;;;;5047008;28;20307;-64
2023/03/29 01:58:09;;;;;;;9.40;5.10;;;0.90;99.90;;;;;;5041813;28;20347;-64
2023/03/29 02:01:01;;;;;;;10.30;5.33;;;0.90;99.90;;;;;;5037103;28;20240;-64
2023/03/29 02:04:02;;;;;;;11.30;5.43;;;0.90;99.90;;;;;;5053196;28;20282;-63
2023/03/29 02:06:55;;;;;;;12.07;5.20;;;0.90;99.90;;;;;;5054478;28;20219;-64
2023/03/29 02:09:47;;;;;;;12.07;5.30;;;0.80;99.90;;;;;;5044610;28;20224;-64
2023/03/29 02:12:36;;;;;;;11.33;5.30;;;0.90;99.90;;;;;;5055511;28;20221;-64
2023/03/29 02:15:26;;;;;;;12.67;5.67;;;0.80;99.90;;;;;;5037867;28;20236;-67
2023/03/29 02:18:18;;;;;;;14.23;5.47;;;0.80;99.90;;;;;;5045427;28;20246;-64
2023/03/29 02:21:10;;;;;;;10.17;5.37;;;0.80;99.90;;;;;;5041058;28;20274;-65
2023/03/29 02:24:06;;;;;;;11.00;5.23;;;0.90;99.90;;;;;;5051705;28;20316;-65
2023/03/29 02:26:55;;;;;;;11.07;5.27;;;0.80;99.90;;;;;;5052065;28;20220;-65
2023/03/29 02:29:45;;;;;;;10.40;5.13;;;1.00;99.90;;;;;;5040081;28;20216;-64
2023/03/29 02:32:45;;;;;;;15.60;5.53;;;0.80;99.90;;;;;;5038607;28;20232;-63
2023/03/29 02:35:38;;;;;;;13.63;5.00;;;0.80;99.90;;;;;;5057788;28;20311;-63
2023/03/29 02:38:30;;;;;;;10.77;5.10;;;0.80;99.90;;;;;;5049043;28;20271;-64
2023/03/29 02:41:20;;;;;;;10.40;5.20;;;0.70;99.90;;;;;;5054268;28;20232;-64
2023/03/29 02:44:14;;;;;;;10.13;4.40;;;0.80;99.90;;;;;;5040405;28;20304;-67
2023/03/29 02:47:08;;;;;;;11.73;5.30;;;0.70;99.90;;;;;;5032766;28;20323;-65
2023/03/29 02:49:57;;;;;;;13.23;5.73;;;0.80;99.90;;;;;;5023674;28;20213;-65
2023/03/29 02:52:53;;;;;;;11.80;5.20;;;0.70;99.90;;;;;;5026870;28;20277;-65
2023/03/29 02:55:45;;;;;;;11.97;5.30;;;0.70;99.90;;;;;;5039193;28;20216;-65
2023/03/29 02:58:35;;;;;;;11.13;5.43;;;0.90;99.90;;;;;;5050568;28;20267;-64
2023/03/29 03:01:25;;;;;;;9.87;4.87;;;0.90;99.90;;;;;;5054808;28;20786;-66
2023/03/29 03:04:13;;;;;;;11.27;5.23;;;0.90;99.90;;;;;;5058862;28;20216;-65
2023/03/29 03:07:04;;;;;;;11.93;4.77;;;0.80;99.90;;;;;;5038899;28;20727;-64
2023/03/29 03:09:52;;;;;;;18.60;5.50;;;0.90;99.90;;;;;;5044380;28;20598;-65
2023/03/29 03:12:43;;;;;;;13.97;5.70;;;0.90;99.90;;;;;;5047813;28;20745;-66
2023/03/29 03:15:34;;;;;;;9.40;4.53;;;0.90;99.90;;;;;;5042793;28;20631;-65
2023/03/29 03:18:23;;;;;;;11.67;5.03;;;0.90;99.90;;;;;;5042546;28;20307;-64
2023/03/29 03:21:12;;;;;;;13.17;4.80;;;0.90;99.90;;;;;;5054607;28;20315;-62
2023/03/29 03:24:01;;;;;;;13.83;5.40;;;0.70;99.90;;;;;;5053318;28;20270;-63
2023/03/29 03:26:50;;;;;;;10.03;4.77;;;0.70;99.90;;;;;;5045137;28;20220;-63
2023/03/29 03:29:42;;;;;;;11.00;5.57;;;0.70;99.90;;;;;;5033897;28;20622;-64
2023/03/29 03:32:35;;;;;;;11.40;5.40;;;0.80;99.90;;;;;;5046315;28;20220;-61
2023/03/29 03:36:01;;;;;;;10.03;5.33;;;0.80;99.90;;;;;;5012070;28;20220;-62
2023/03/29 03:38:52;;;;;;;14.43;5.60;;;0.80;99.90;;;;;;5025400;28;20225;-62
2023/03/29 03:41:41;;;;;;;10.67;5.20;;;0.70;99.90;;;;;;5047307;28;20227;-64
2023/03/29 03:44:30;;;;;;;14.17;5.57;;;0.70;99.90;;;;;;5040703;28;20228;-62
2023/03/29 03:47:53;;;;;;;15.17;5.50;;;0.60;99.90;;;;;;5026463;28;20220;-63
2023/03/29 03:51:02;;;;;;;16.33;6.00;;;0.70;99.90;;;;;;5027424;28;20237;-64
2023/03/29 03:53:54;;;;;;;10.87;5.80;;;0.70;99.90;;;;;;5024650;28;20224;-63
2023/03/29 03:56:55;;;;;;;12.53;5.50;;;0.80;99.90;;;;;;5047323;28;20235;-64
2023/03/29 03:59:48;;;;;;;16.03;6.07;;;0.80;99.90;;;;;;5046697;28;20227;-64
2023/03/29 04:02:46;;;;;;;14.47;6.27;;;0.60;99.90;;;;;;5019017;28;20220;-64
2023/03/29 04:05:39;;;;;;;12.13;5.93;;;0.70;99.90;;;;;;5032763;28;20367;-63
2023/03/29 04:08:29;;;;;;;15.77;5.70;;;0.70;99.90;;;;;;5014658;28;20225;-64
2023/03/29 04:11:30;;;;;;;12.97;6.07;;;0.60;99.90;;;;;;5022780;28;20252;-63
2023/03/29 04:14:20;;;;;;;11.97;5.40;;;0.70;99.90;;;;;;5036788;28;20698;-62
2023/03/29 04:17:22;;;;;;;12.93;5.73;;;0.70;99.90;;;;;;5022337;28;20232;-62
2023/03/29 04:20:13;;;;;;;14.93;5.70;;;0.60;99.90;;;;;;5040225;28;20221;-62
2023/03/29 04:23:04;;;;;;;13.00;5.83;;;0.60;99.90;;;;;;5053838;28;20542;-63
2023/03/29 04:25:55;;;;;;;11.70;5.63;;;0.70;99.90;;;;;;5064247;28;20720;-63
2023/03/29 04:29:07;;;;;;;14.20;6.43;;;0.70;99.90;;;;;;5046627;28;20809;-63
2023/03/29 04:32:02;;;;;;;13.43;6.00;;;0.70;99.90;;;;;;5025542;28;20233;-63
2023/03/29 04:35:10;;;;;;;11.97;5.63;;;0.80;99.90;;;;;;5062920;28;20358;-63
2023/03/29 04:37:59;;;;;;;13.93;5.93;;;0.60;99.90;;;;;;5030661;28;20212;-64
2023/03/29 04:40:50;;;;;;;14.93;6.10;;;0.70;99.90;;;;;;5035856;28;20220;-64
2023/03/29 04:43:58;;;;;;;16.60;5.83;;;0.50;99.90;;;;;;5070102;28;20231;-64
2023/03/29 04:46:50;;;;;;;12.47;5.70;;;0.70;99.90;;;;;;5051397;28;20220;-61
2023/03/29 04:49:43;;;;;;;14.60;6.20;;;0.70;99.90;;;;;;5060318;28;20794;-63
2023/03/29 04:52:44;;;;;;;14.23;5.80;;;0.80;99.90;;;;;;5050904;28;20707;-63
2023/03/29 04:55:33;;;;;;;17.97;6.03;;;0.80;99.90;;;;;;5045707;28;20221;-64
2023/03/29 04:58:24;;;;;;;15.30;6.23;;;0.80;99.90;;;;;;5065688;28;20625;-63
2023/03/29 05:01:19;;;;;;;16.00;6.67;;;0.80;99.90;;;;;;5028473;28;20222;-64
2023/03/29 05:04:17;;;;;;;15.23;5.60;;;0.90;99.90;;;;;;5036387;28;20938;-64
2023/03/29 05:07:21;;;;;;;17.43;6.20;;;0.90;99.90;;;;;;5049989;28;20292;-64
2023/03/29 05:10:11;;;;;;;16.30;6.00;;;1.00;99.90;;;;;;5043525;28;20238;-64
2023/03/29 05:13:00;;;;;;;13.83;6.57;;;1.00;99.90;;;;;;5037054;28;20217;-63
2023/03/29 05:15:51;;;;;;;11.87;6.13;;;0.90;99.90;;;;;;5031067;28;20216;-64
2023/03/29 05:18:40;;;;;;;12.73;6.00;;;1.00;99.90;;;;;;5049644;28;20221;-64
2023/03/29 05:21:32;;;;;;;20.47;6.43;;;0.90;99.90;;;;;;5072785;28;20228;-63
2023/03/29 05:24:24;;;;;;;16.57;6.53;;;1.20;99.90;;;;;;5071405;28;20304;-64
2023/03/29 05:27:17;;;;;;;13.40;7.00;;;1.10;99.90;;;;;;5051123;28;20796;-65
2023/03/29 05:30:18;;;;;;;13.57;6.40;;;1.10;99.90;;;;;;5051807;28;20231;-63
2023/03/29 05:33:17;;;;;;;12.33;6.20;;;1.20;99.90;;;;;;5038727;28;20719;-63
2023/03/29 05:36:09;;;;;;;22.43;6.40;;;1.20;99.90;;;;;;5029512;28;20228;-63
2023/03/29 05:39:05;;;;;;;13.03;6.60;;;1.30;99.90;;;;;;5034176;28;20365;-65
2023/03/29 05:41:55;;;;;;;11.33;6.57;;;1.40;99.90;;;;;;5040939;28;20275;-64
2023/03/29 05:44:48;;;;;;;13.97;6.53;;;1.50;99.90;;;;;;5066523;28;20358;-64
2023/03/29 05:47:41;;;;;;;13.87;6.43;;;1.50;99.90;;;;;;5054836;28;20225;-66
2023/03/29 05:50:31;;;;;;;15.50;6.40;;;1.60;99.90;;;;;;5053765;28;20839;-67
2023/03/29 05:53:22;;;;;;;12.03;6.40;;;1.60;99.90;;;;;;5041315;28;20220;-65
2023/03/29 05:56:14;;;;;;;14.07;6.13;;;1.70;99.90;;;;;;5041530;28;20251;-68
2023/03/29 05:59:04;;;;;;;13.33;5.80;;;1.70;99.90;;;;;;5039463;28;20228;-69
2023/03/29 06:01:56;;;;;;;18.47;6.43;;;1.80;99.90;;;;;;5035194;28;20228;-69
2023/03/29 06:04:45;;;;;;;15.00;6.03;;;1.90;99.90;;;;;;5047619;28;20232;-69
2023/03/29 06:08:01;;;;;;;17.13;6.30;;;1.90;99.90;;;;;;5040150;28;20221;-68
2023/03/29 06:11:05;;;;;;;15.63;5.70;;;2.00;99.90;;;;;;5050840;28;20220;-69
2023/03/29 06:14:13;;;;;;;12.37;5.37;;;2.00;99.90;;;;;;5047806;28;20219;-67
2023/03/29 06:17:08;;;;;;;13.90;5.63;;;2.20;99.90;;;;;;5039848;28;20225;-70
2023/03/29 06:19:58;;;;;;;12.63;6.43;;;2.30;99.90;;;;;;5064444;28;20212;-67
2023/03/29 06:22:48;;;;;;;26.20;15.57;;;2.30;99.90;;;;;;5055989;28;20227;-69
2023/03/29 06:25:39;;;;;;;13.77;6.03;;;2.40;99.90;;;;;;5033589;28;21132;-67
2023/03/29 06:28:29;;;;;;;11.33;5.93;;;2.50;99.90;;;;;;5047117;28;20914;-69
2023/03/29 06:31:19;;;;;;;18.13;5.57;;;2.50;99.90;;;;;;5020004;28;20232;-69
2023/03/29 06:34:12;;;;;;;13.23;6.10;;;2.50;99.90;;;;;;5038622;28;20655;-69
2023/03/29 06:37:01;;;;;;;11.77;5.60;;;2.70;99.90;;;;;;5058834;28;20326;-66
2023/03/29 06:39:51;;;;;;;13.57;5.93;;;2.70;99.90;;;;;;5041384;28;20227;-63
2023/03/29 06:43:02;;;;;;;12.50;6.03;;;2.60;99.90;;;;;;5052010;28;20226;-65
2023/03/29 06:46:01;;;;;;;12.83;6.20;;;2.80;99.90;;;;;;5056023;28;20229;-63
2023/03/29 06:49:03;;;;;;;13.53;5.87;;;2.80;99.90;;;;;;5022611;28;20227;-65
2023/03/29 06:52:15;;;;;;;16.70;6.40;;;3.00;99.90;;;;;;5024415;28;20776;-64
2023/03/29 06:55:07;;;;;;;18.50;10.37;;;3.10;99.90;;;;;;5067673;28;20238;-64
2023/03/29 06:57:58;;;;;;;15.40;6.03;;;3.10;99.90;;;;;;5052198;28;20213;-63
2023/03/29 07:00:52;;;;;;;10.13;5.77;;;3.20;99.90;;;;;;5056670;28;20744;-64
2023/03/29 07:03:48;;;;;;;13.30;5.77;;;3.30;99.90;;;;;;5038067;28;20260;-63
2023/03/29 07:06:47;;;;;;;9.63;5.77;;;3.20;99.90;;;;;;5068626;28;20233;-64
2023/03/29 07:09:38;;;;;;;11.33;6.13;;;3.30;99.90;;;;;;5038182;28;20229;-63
2023/03/29 07:12:51;;;;;;;12.67;6.73;;;3.20;99.90;;;;;;5032292;28;20219;-65
2023/03/29 07:15:41;;;;;;;9.70;5.50;;;3.30;99.90;;;;;;5057510;28;20877;-66
2023/03/29 07:18:44;;;;;;;13.33;5.80;;;3.30;99.90;;;;;;5036485;28;20339;-66
2023/03/29 07:21:41;;;;;;;12.80;5.40;;;3.30;99.90;;;;;;5055262;28;20320;-67
2023/03/29 07:24:32;;;;;;;11.53;5.70;;;3.30;99.90;;;;;;5066807;28;20342;-65
2023/03/29 07:27:22;;;;;;;10.90;5.67;;;3.50;99.90;;;;;;5028903;28;20254;-67
2023/03/29 07:30:15;;;;;;;11.63;5.70;;;3.70;99.90;;;;;;5049042;28;20267;-66
2023/03/29 07:33:04;;;;;;;11.83;5.87;;;3.90;99.90;;;;;;5054125;28;20291;-64
2023/03/29 07:36:00;;;;;;;14.37;6.30;;;4.30;99.90;;;;;;5065973;28;20594;-67
2023/03/29 07:38:50;;;;;;;13.57;5.13;;;5.00;99.90;;;;;;5055952;28;20224;-67
2023/03/29 07:41:42;;;;;;;8.47;4.83;;;5.80;99.90;;;;;;5053028;28;20253;-66
2023/03/29 07:44:34;;;;;;;14.37;5.37;;;6.20;99.90;;;;;;5032047;28;20221;-65
2023/03/29 07:47:23;;;;;;;10.27;4.97;;;6.90;99.90;;;;;;5032511;28;20246;-66
2023/03/29 07:50:13;;;;;;;9.47;5.10;;;7.20;99.90;;;;;;5057892;28;20228;-67
2023/03/29 07:53:03;;;;;;;11.43;4.93;;;7.60;99.90;;;;;;5035929;28;20308;-68
2023/03/29 07:55:53;;;;;;;7.80;4.57;;;8.00;99.90;;;;;;5040754;28;20213;-67
2023/03/29 07:59:02;;;;;;;7.47;4.50;;;8.30;99.90;;;;;;5025004;28;20240;-68
2023/03/29 08:01:51;;;;;;;11.53;4.43;;;8.60;99.90;;;;;;5033721;28;20759;-65
2023/03/29 08:05:00;;;;;;;11.20;5.00;;;8.40;99.90;;;;;;5027166;28;20410;-67
2023/03/29 08:08:16;;;;;;;11.63;4.83;;;8.70;99.90;;;;;;5049945;28;20377;-65
2023/03/29 08:11:16;;;;;;;9.93;4.93;;;8.80;99.90;;;;;;5067250;28;20227;-68
2023/03/29 08:14:26;;;;;;;8.27;4.43;;;9.10;99.90;;;;;;5035263;28;20223;-68
2023/03/29 08:17:21;;;;;;;9.07;4.83;;;9.40;99.90;;;;;;5066837;28;20231;-68
2023/03/29 08:20:14;;;;;;;7.67;4.33;;;10.00;99.90;;;;;;5062344;28;20232;-67
2023/03/29 08:23:05;;;;;;;9.07;3.80;;;10.20;99.90;;;;;;5045229;28;20797;-66
2023/03/29 08:26:02;;;;;;;7.18;4.20;;;10.50;99.90;;;;;;5061457;28;20825;-67
2023/03/29 08:28:51;;;;;;;7.22;4.13;;;10.30;99.90;;;;;;5045714;28;20277;-68
2023/03/29 08:31:44;;;;;;;7.28;3.78;;;10.40;99.90;;;;;;5035478;28;20232;-71
2023/03/29 08:34:34;;;;;;;5.90;3.60;;;10.20;99.90;;;;;;5068179;28;20224;-69
2023/03/29 08:37:36;;;;;;;10.77;3.75;;;10.60;99.90;;;;;;5061083;28;20675;-71
2023/03/29 08:40:29;;;;;;;8.75;4.00;;;10.80;99.90;;;;;;5058036;28;20228;-71
2023/03/29 08:43:56;;;;;;;8.00;3.92;;;11.20;99.90;;;;;;5058030;28;20225;-72
2023/03/29 08:47:09;;;;;;;8.45;3.05;;;11.30;99.90;;;;;;5042533;28;20300;-72
2023/03/29 08:50:05;;;;;;;6.35;3.15;;;11.10;99.90;;;;;;5044532;28;20573;-72
2023/03/29 08:53:06;;;;;;;5.22;3.40;;;11.70;99.90;;;;;;5045104;28;20228;-70
2023/03/29 08:56:23;;;;;;;7.82;3.88;;;12.10;99.90;;;;;;5041098;28;20309;-71
2023/03/29 08:59:24;;;;;;;4.80;2.90;;;12.20;99.90;;;;;;5040486;28;20232;-73
2023/03/29 09:02:17;;;;;;;4.88;2.50;;;12.40;99.90;;;;;;5049986;28;20276;-72
2023/03/29 09:05:21;;;;;;;3.65;2.33;;;12.50;99.10;;;;;;5042839;28;20742;-72
2023/03/29 09:08:21;;;;;;;6.05;2.80;;;12.60;97.20;;;;;;5061826;28;20715;-72
2023/03/29 09:11:39;;;;;;;4.45;2.42;;;12.30;95.30;;;;;;5037107;28;20228;-70
2023/03/29 09:14:45;;;;;;;3.20;2.15;;;12.10;92.90;;;;;;5064277;28;20520;-70
2023/03/29 09:17:50;;;;;;;3.38;1.58;;;11.60;92.30;;;;;;5043089;28;20742;-69
2023/03/29 09:20:49;;;;;;;5.88;2.35;;;11.60;86.80;;;;;;5062311;28;20629;-70
2023/03/29 09:24:03;;;;;;;4.90;2.03;;;9.90;88.20;;;;;;5060432;28;20820;-69
2023/03/29 09:27:18;;;;;;;5.57;2.00;;;9.20;89.00;;;;;;5059072;28;20216;-68
2023/03/29 09:30:24;;;;;;;3.85;1.58;;;8.80;86.70;;;;;;5042166;28;20220;-68
2023/03/29 09:33:24;;;;;;;2.40;1.63;;;8.30;78.70;;;;;;5049856;28;20822;-69
2023/03/29 09:36:29;;;;;;;3.50;2.08;;;8.20;80.10;;;;;;5055004;28;20220;-68
2023/03/29 09:39:19;;;;;;;3.67;1.70;;;7.80;81.80;;;;;;5056807;28;20254;-68
2023/03/29 09:42:15;;;;;;;4.80;1.83;;;7.90;79.50;;;;;;5045946;28;20690;-70
2023/03/29 09:45:07;;;;;;;5.65;2.60;;;7.90;77.30;;;;;;5046455;28;20235;-69
2023/03/29 09:48:12;;;;;;;4.55;2.20;;;7.90;78.40;;;;;;5063975;28;20235;-69
2023/03/29 09:51:07;;;;;;;3.80;2.22;;;7.50;80.80;;;;;;5028864;28;20225;-69
2023/03/29 09:54:00;;;;;;;4.53;1.80;;;7.50;79.60;;;;;;5036722;28;20229;-68
2023/03/29 09:57:11;;;;;;;3.47;1.85;;;7.50;76.20;;;;;;5054985;28;20243;-70
2023/03/29 10:00:04;;;;;;;5.57;2.10;;;7.20;75.60;;;;;;5044866;28;20789;-70
2023/03/29 10:03:01;;;;;;;7.05;2.20;;;7.30;77.00;;;;;;5059398;28;20236;-70
2023/03/29 10:06:06;;;;;;;4.95;2.45;;;7.50;76.40;;;;;;5043432;28;20290;-69
2023/03/29 10:08:57;;;;;;;4.15;2.30;;;7.50;77.20;;;;;;5048995;28;20273;-74
2023/03/29 10:12:06;;;;;;;5.63;2.38;;;7.70;72.90;;;;;;5057844;28;20730;-75
2023/03/29 10:14:56;;;;;;;4.50;2.20;;;7.60;74.30;;;;;;5041350;28;20253;-70
2023/03/29 10:17:45;;;;;;;3.30;1.95;;;7.50;71.80;;;;;;5042356;28;20347;-71
2023/03/29 10:20:37;;;;;;;4.53;2.00;;;7.70;72.00;;;;;;5031720;28;20221;-72
2023/03/29 10:23:31;;;;;;;4.10;2.20;;;7.50;72.20;;;;;;5060266;28;20237;-69
2023/03/29 10:26:27;;;;;;;4.88;1.88;;;7.50;74.40;;;;;;5031975;28;20712;-70
2023/03/29 10:29:16;;;;;;;5.37;2.23;;;7.50;74.40;;;;;;5035450;28;20224;-69
2023/03/29 10:32:15;;;;;;;4.07;2.45;;;7.50;74.80;;;;;;5055960;28;20232;-72
2023/03/29 10:35:10;;;;;;;3.80;2.63;;;7.40;75.70;;;;;;5042613;28;20770;-73
2023/03/29 10:38:03;;;;;;;6.90;2.97;;;7.70;76.10;;;;;;5055823;28;20228;-72
2023/03/29 10:40:54;;;;;;;8.05;3.88;;;7.60;75.90;;;;;;5020187;28;20423;-72
2023/03/29 10:43:45;;;;;;;5.10;3.03;;;7.50;76.60;;;;;;5055893;28;20785;-72
2023/03/29 10:46:41;;;;;;;4.88;2.83;;;7.50;77.20;;;;;;5042958;28;20268;-72
2023/03/29 10:49:31;;;;;;;5.43;2.50;;;7.40;78.70;;;;;;5056437;28;20220;-75
2023/03/29 10:52:20;;;;;;;10.07;2.78;;;7.40;78.40;;;;;;5033167;28;20708;-73
2023/03/29 10:55:12;;;;;;;7.85;2.88;;;7.70;79.70;;;;;;5042066;28;20235;-74
2023/03/29 10:58:12;;;;;;;6.67;3.17;;;7.70;80.00;;;;;;5038417;28;20274;-74
2023/03/29 11:01:01;;;;;;;4.50;2.80;;;7.70;80.60;;;;;;5021918;28;20232;-74
2023/03/29 11:04:05;;;;;;;5.17;2.60;;;7.70;82.50;;;;;;5056589;28;20746;-76
2023/03/29 11:07:16;;;;;;;6.55;2.58;;;7.60;82.60;;;;;;5038288;28;20224;-72
2023/03/29 11:10:25;;;;;;;6.27;2.90;;;7.70;81.80;;;;;;5049153;28;20304;-71
2023/03/29 11:13:26;;;;;;;41.53;4.67;;;7.80;83.60;;;;;;5053556;28;20900;-70
2023/03/29 11:16:27;;;;;;;13.02;3.00;;;7.80;82.30;;;;;;5054008;28;20277;-71
2023/03/29 11:19:42;;;;;;;6.90;3.10;;;7.90;82.30;;;;;;5035580;28;20235;-70
2023/03/29 11:22:41;;;;;;;4.20;2.73;;;7.90;82.10;;;;;;5036958;28;20381;-70
2023/03/29 11:25:42;;;;;;;4.57;2.80;;;8.00;81.50;;;;;;5040073;28;20232;-70
2023/03/29 11:28:45;;;;;;;3.60;2.40;;;7.90;81.80;;;;;;5036313;28;20281;-71
2023/03/29 11:31:40;;;;;;;5.43;2.97;;;7.90;80.90;;;;;;5048422;28;20227;-74
2023/03/29 11:34:40;;;;;;;6.57;2.90;;;7.80;81.70;;;;;;5046922;28;20224;-70
2023/03/29 11:37:37;;;;;;;4.73;3.00;;;7.90;81.10;;;;;;5055361;28;20703;-69
2023/03/29 11:40:41;;;;;;;12.93;2.67;;;8.00;82.10;;;;;;5048335;28;20366;-70
2023/03/29 11:43:35;;;;;;;6.33;2.80;;;8.20;82.60;;;;;;5040763;28;20226;-73
2023/03/29 11:46:29;;;;;;;4.67;2.63;;;7.90;79.30;;;;;;5040233;28;20296;-68
2023/03/29 11:49:23;;;;;;;4.07;2.50;;;7.80;78.80;;;;;;5031749;28;20273;-69
2023/03/29 11:52:16;;;;;;;6.90;2.60;;;7.80;78.70;;;;;;5051960;28;20239;-69
2023/03/29 11:55:09;;;;;;;6.53;2.77;;;8.10;79.10;;;;;;5068298;28;20639;-70
2023/03/29 11:58:05;;;;;;;4.80;2.80;;;8.00;80.50;;;;;;5057239;28;20510;-69
2023/03/29 12:01:01;;;;;;;6.60;3.00;;;8.00;81.00;;;;;;5042227;28;20350;-71
2023/03/29 12:03:53;;;;;;;6.47;2.80;;;7.90;77.50;;;;;;5045122;28;20228;-79
2023/03/29 12:06:46;;;;;;;6.03;2.97;;;7.70;77.70;;;;;;5029611;28;20333;-73
2023/03/29 12:09:40;;;;;;;6.20;2.70;;;7.70;77.90;;;;;;5052966;28;20572;-72
2023/03/29 12:12:40;;;;;;;4.88;2.60;;;7.70;77.40;;;;;;5057961;28;20228;-73
2023/03/29 12:15:32;;;;;;;4.30;2.38;;;7.80;76.90;;;;;;5051202;28;20238;-72
2023/03/29 12:18:27;;;;;;;6.10;3.00;;;7.90;75.60;;;;;;5042893;28;20232;-68
2023/03/29 12:21:20;;;;;;;6.07;2.60;;;7.90;76.10;;;;;;5040236;28;20260;-73
2023/03/29 12:24:11;;;;;;;4.95;2.58;;;8.10;75.50;;;;;;5053810;28;20232;-69
2023/03/29 12:27:22;;;;;;;4.73;2.57;;;8.10;74.60;;;;;;5035268;28;20221;-71
2023/03/29 12:30:37;;;;;;;4.83;3.03;;;8.10;73.80;;;;;;5048439;28;20245;-71
2023/03/29 12:33:47;;;;;;;5.17;2.90;;;8.20;72.70;;;;;;5017428;28;20226;-72
2023/03/29 12:37:17;;;;;;;5.57;3.00;;;8.20;73.80;;;;;;5033485;28;20229;-72
2023/03/29 12:40:44;;;;;;;5.70;2.97;;;8.20;73.70;;;;;;5014153;28;20695;-72
2023/03/29 12:43:52;;;;;;;5.03;3.30;;;8.30;74.40;;;;;;5054940;28;20232;-74
2023/03/29 12:47:01;;;;;;;6.83;2.90;;;8.30;74.70;;;;;;5056791;28;20519;-75
2023/03/29 12:49:55;;;;;;;6.60;2.80;;;8.30;71.80;;;;;;5056953;28;20220;-75
2023/03/29 12:52:44;;;;;;;9.27;3.30;;;8.30;72.00;;;;;;5038891;28;20940;-69
2023/03/29 12:55:47;;;;;;;7.10;3.20;;;8.40;72.30;;;;;;5058410;28;20220;-70
2023/03/29 12:58:53;;;;;;;5.73;3.10;;;8.30;73.30;;;;;;5060571;28;20250;-73
2023/03/29 13:01:57;;;;;;;5.77;3.00;;;8.30;72.90;;;;;;5071153;28;20214;-69
2023/03/29 13:04:53;;;;;;;8.30;3.20;;;8.30;71.90;;;;;;5043086;28;20235;-70
2023/03/29 13:07:47;;;;;;;5.60;3.40;;;8.30;73.50;;;;;;5040123;28;20246;-73
2023/03/29 13:10:41;;;;;;;5.30;3.33;;;8.40;74.30;;;;;;5028738;28;20236;-72
2023/03/29 13:13:33;;;;;;;4.73;3.00;;;8.40;75.10;;;;;;5060269;28;20351;-72
2023/03/29 13:16:32;;;;;;;10.70;3.00;;;8.50;76.40;;;;;;5034340;28;20243;-71
2023/03/29 13:19:33;;;;;;;5.87;3.00;;;8.50;73.20;;;;;;5025758;28;20625;-70
2023/03/29 13:22:51;;;;;;;4.87;2.83;;;8.60;73.10;;;;;;5053491;28;20377;-69
2023/03/29 13:25:56;;;;;;;4.47;2.30;;;8.60;72.20;;;;;;5056350;28;20361;-71
2023/03/29 13:29:02;;;;;;;4.63;2.87;;;8.70;73.00;;;;;;5048306;28;20256;-71
2023/03/29 13:31:59;;;;;;;6.30;2.90;;;8.60;71.80;;;;;;5048474;28;20225;-71
2023/03/29 13:34:53;;;;;;;4.38;2.83;;;8.60;73.20;;;;;;5048958;28;20228;-72
2023/03/29 13:37:59;;;;;;;2.50;1.90;;;8.60;74.20;;;;;;5044208;28;20394;-71
2023/03/29 13:41:06;;;;;;;4.70;2.00;;;8.70;67.80;;;;;;5036344;28;20225;-72
2023/03/29 13:43:56;;;;;;;2.77;2.10;;;8.60;68.40;;;;;;5032614;28;20310;-73
2023/03/29 13:47:12;;;;;;;2.63;2.00;;;8.60;69.20;;;;;;5055056;28;20555;-73
2023/03/29 13:50:04;;;;;;;6.37;2.00;;;8.60;69.00;;;;;;5036810;28;20293;-73
2023/03/29 13:53:03;;;;;;;3.53;2.07;;;8.50;69.50;;;;;;5037349;28;20303;-73
2023/03/29 13:55:54;;;;;;;5.23;2.00;;;8.50;68.60;;;;;;5035273;28;20294;-73
2023/03/29 13:58:46;;;;;;;4.50;2.13;;;8.50;69.80;;;;;;5037217;28;20232;-72
2023/03/29 14:01:39;;;;;;;5.77;2.57;;;8.50;70.30;;;;;;5035496;28;20240;-72
2023/03/29 14:04:36;;;;;;;2.97;1.90;;;8.50;68.40;;;;;;5058111;28;20290;-75
2023/03/29 14:07:27;;;;;;;5.23;2.30;;;8.60;69.00;;;;;;5051562;28;20814;-77
2023/03/29 14:10:24;;;;;;;2.37;1.90;;;8.60;68.70;;;;;;5045250;28;20873;-76
2023/03/29 14:13:15;;;;;;;3.80;2.10;;;8.60;68.60;;;;;;5064833;28;20235;-78
2023/03/29 14:16:07;;;;;;;5.60;1.80;;;8.60;67.60;;;;;;5044814;28;20331;-76
2023/03/29 14:18:59;;;;;;;5.03;2.23;;;8.70;68.30;;;;;;5057661;28;20227;-74
2023/03/29 14:21:50;;;;;;;6.63;2.17;;;8.70;70.40;;;;;;5045869;28;20259;-75
2023/03/29 14:24:41;;;;;;;8.00;2.37;;;8.70;69.70;;;;;;5058898;28;20226;-75
2023/03/29 14:27:35;;;;;;;9.40;1.77;;;8.70;70.10;;;;;;5055522;28;20234;-74
2023/03/29 14:30:31;;;;;;;2.77;1.70;;;8.70;69.70;;;;;;5052019;28;20311;-77
2023/03/29 14:33:31;;;;;;;2.80;2.00;;;8.70;68.40;;;;;;5058542;28;20221;-77
2023/03/29 14:36:20;;;;;;;4.10;2.07;;;8.70;68.80;;;;;;5064425;28;20228;-77
2023/03/29 14:39:15;;;;;;;4.27;1.80;;;8.70;69.00;;;;;;5047893;28;20567;-76
2023/03/29 14:42:09;;;;;;;3.87;2.30;;;8.70;70.40;;;;;;5043173;28;20329;-76
2023/03/29 14:45:04;;;;;;;3.78;1.85;;;8.70;69.20;;;;;;5047123;28;20225;-77
2023/03/29 14:47:53;;;;;;;7.00;2.20;;;8.60;69.60;;;;;;5054692;28;20319;-75
2023/03/29 14:50:44;;;;;;;4.13;2.07;;;8.70;68.70;;;;;;5079618;28;20852;-75
2023/03/29 14:53:36;;;;;;;4.30;2.20;;;8.80;69.30;;;;;;5056468;28;20239;-74
2023/03/29 14:56:27;;;;;;;4.07;2.10;;;8.80;70.10;;;;;;5045694;28;20619;-76
2023/03/29 14:59:27;;;;;;;6.07;2.40;;;8.70;71.00;;;;;;5032544;28;20903;-76
2023/03/29 15:02:29;;;;;;;4.03;2.27;;;8.80;70.90;;;;;;5059328;28;20229;-77
2023/03/29 15:05:25;;;;;;;11.43;3.27;;;8.80;69.80;;;;;;5035674;28;20230;-77
2023/03/29 15:08:18;;;;;;;4.17;2.40;;;8.80;70.10;;;;;;5041930;28;20246;-75
2023/03/29 15:11:14;;;;;;;5.00;2.70;;;8.80;69.80;;;;;;5035903;28;21906;-76
2023/03/29 15:14:05;;;;;;;5.17;2.60;;;8.80;71.30;;;;;;5035053;28;20562;-78
2023/03/29 15:17:01;;;;;;;8.87;2.70;;;8.80;71.00;;;;;;5026983;28;20243;-76
2023/03/29 15:19:57;;;;;;;8.17;2.77;;;8.80;72.10;;;;;;5036632;28;20216;-77